Time;durP1;ratioP1;P1;durP2;ratioP2;P2;SDS_P1;SDS_P2;PMS_P1;PMS_P2;Temp;Humidity;BMP_temperature;BMP_pressure;BME280_temperature;BME280_humidity;BME280_pressure;Samples;Min_cycle;Max_cycle;Signal;HPM_P1;HPM_P2
2022/03/06 00:00:09;;;;;;;40.05;26.48;;;;;;;;;;4945837;28;20043;-79
2022/03/06 00:02:36;;;;;;;42.75;25.02;;;;;;;;;;4968506;28;20110;-79
2022/03/06 00:05:02;;;;;;;33.20;22.90;;;;;;;;;;4968893;28;20054;-79
2022/03/06 00:07:27;;;;;;;30.35;20.13;;;;;;;;;;4960321;28;20107;-79
2022/03/06 00:09:53;;;;;;;23.58;18.30;;;;;;;;;;4969760;28;20066;-79
2022/03/06 00:12:19;;;;;;;28.33;17.88;;;;;;;;;;4978958;28;20035;-79
2022/03/06 00:14:44;;;;;;;27.95;18.92;;;;;;;;;;4967557;28;20043;-79
2022/03/06 00:17:10;;;;;;;33.85;21.08;;;;;;;;;;4963855;28;20038;-78
2022/03/06 00:19:36;;;;;;;36.80;22.80;;;;;;;;;;4977182;28;20102;-79
2022/03/06 00:22:02;;;;;;;30.55;23.08;;;;;;;;;;4959250;28;20416;-79
2022/03/06 00:24:28;;;;;;;35.95;23.52;;;;;;;;;;4960556;28;20456;-79
2022/03/06 00:26:54;;;;;;;24.00;17.48;;;;;;;;;;4996339;28;20042;-79
2022/03/06 00:29:19;;;;;;;31.23;18.65;;;;;;;;;;4969806;28;20042;-79
2022/03/06 00:31:45;;;;;;;28.55;18.88;;;;;;;;;;4962752;28;20049;-79
2022/03/06 00:34:11;;;;;;;23.88;17.70;;;;;;;;;;4966315;28;20069;-79
2022/03/06 00:36:37;;;;;;;25.77;17.05;;;;;;;;;;4978642;28;20039;-79
2022/03/06 00:39:04;;;;;;;23.77;16.75;;;;;;;;;;4962903;28;20540;-79
2022/03/06 00:41:29;;;;;;;27.35;18.50;;;;;;;;;;4961891;28;20106;-80
2022/03/06 00:43:55;;;;;;;26.73;19.20;;;;;;;;;;4961280;28;20065;-80
2022/03/06 00:46:21;;;;;;;25.42;18.27;;;;;;;;;;4962002;28;20481;-79
2022/03/06 00:48:47;;;;;;;24.05;17.25;;;;;;;;;;4945643;28;20043;-79
2022/03/06 00:51:14;;;;;;;23.58;17.50;;;;;;;;;;4980811;28;20073;-79
2022/03/06 00:53:39;;;;;;;24.52;17.15;;;;;;;;;;4972465;28;20032;-79
2022/03/06 00:56:05;;;;;;;27.55;19.20;;;;;;;;;;4998079;28;20058;-79
2022/03/06 00:58:31;;;;;;;27.85;18.00;;;;;;;;;;4952483;28;20039;-79
2022/03/06 01:00:57;;;;;;;19.05;15.00;;;;;;;;;;4950327;28;20040;-79
2022/03/06 01:03:23;;;;;;;23.63;16.35;;;;;;;;;;4952552;28;20125;-79
2022/03/06 01:05:49;;;;;;;20.63;14.48;;;;;;;;;;4973574;28;20043;-79
2022/03/06 01:08:15;;;;;;;21.05;14.40;;;;;;;;;;4985108;28;20043;-79
2022/03/06 01:10:43;;;;;;;20.60;13.60;;;;;;;;;;4978184;28;20035;-79
2022/03/06 01:13:10;;;;;;;17.30;12.32;;;;;;;;;;4980382;28;20031;-79
2022/03/06 01:15:36;;;;;;;17.08;11.95;;;;;;;;;;4963632;28;20070;-79
2022/03/06 01:18:03;;;;;;;17.58;12.13;;;;;;;;;;4959216;28;20039;-79
2022/03/06 01:20:29;;;;;;;13.80;10.02;;;;;;;;;;4975924;28;20031;-79
2022/03/06 01:22:55;;;;;;;13.57;10.65;;;;;;;;;;4976821;28;20062;-79
2022/03/06 01:25:21;;;;;;;14.60;10.15;;;;;;;;;;4977268;28;20055;-78
2022/03/06 01:27:47;;;;;;;12.25;9.13;;;;;;;;;;4978741;28;20046;-78
2022/03/06 01:30:19;;;;;;;13.88;11.02;;;;;;;;;;4978059;28;20094;-79
2022/03/06 01:32:45;;;;;;;12.70;9.48;;;;;;;;;;4976949;28;20039;-79
2022/03/06 01:35:11;;;;;;;11.15;9.32;;;;;;;;;;4988053;28;20043;-79
2022/03/06 01:37:36;;;;;;;14.40;10.98;;;;;;;;;;4964019;28;20042;-79
2022/03/06 01:40:04;;;;;;;11.73;9.25;;;;;;;;;;4978882;28;20043;-79
2022/03/06 01:42:29;;;;;;;13.27;9.10;;;;;;;;;;4962699;28;20055;-79
2022/03/06 01:44:55;;;;;;;12.25;9.68;;;;;;;;;;4979265;28;20035;-79
2022/03/06 01:47:40;;;;;;;14.02;9.82;;;;;;;;;;4961255;28;20082;-79
2022/03/06 01:50:30;;;;;;;13.13;9.68;;;;;;;;;;4961310;28;20101;-80
2022/03/06 01:52:57;;;;;;;14.77;10.52;;;;;;;;;;4972211;28;20251;-79
2022/03/06 01:55:24;;;;;;;16.85;10.93;;;;;;;;;;4996741;28;20031;-79
2022/03/06 01:57:51;;;;;;;13.00;10.60;;;;;;;;;;4962670;28;20034;-79
2022/03/06 02:00:19;;;;;;;13.50;9.90;;;;;;;;;;4960001;28;20043;-79
2022/03/06 02:02:45;;;;;;;14.98;10.27;;;;;;;;;;4977755;28;20447;-79
2022/03/06 02:05:11;;;;;;;13.32;10.30;;;;;;;;;;4975969;28;20049;-79
2022/03/06 02:07:37;;;;;;;14.07;10.43;;;;;;;;;;4952465;28;20571;-79
2022/03/06 02:10:05;;;;;;;13.18;9.60;;;;;;;;;;4947961;28;20037;-79
2022/03/06 02:12:32;;;;;;;12.38;9.50;;;;;;;;;;4964723;28;20078;-79
2022/03/06 02:14:59;;;;;;;14.75;10.05;;;;;;;;;;4980963;28;20039;-79
2022/03/06 02:17:25;;;;;;;12.82;9.88;;;;;;;;;;4956392;28;20066;-79
2022/03/06 02:20:02;;;;;;;13.10;10.07;;;;;;;;;;4967867;28;20042;-79
2022/03/06 02:22:30;;;;;;;13.73;9.45;;;;;;;;;;4954168;28;20035;-79
2022/03/06 02:24:57;;;;;;;14.50;10.10;;;;;;;;;;4948164;28;20062;-79
2022/03/06 02:27:23;;;;;;;12.77;10.05;;;;;;;;;;4983782;28;20082;-79
2022/03/06 02:29:49;;;;;;;14.60;11.05;;;;;;;;;;4958118;28;20063;-79
2022/03/06 02:32:17;;;;;;;12.32;9.50;;;;;;;;;;4973106;28;20036;-79
2022/03/06 02:34:45;;;;;;;13.02;10.45;;;;;;;;;;4944545;29;20035;-79
2022/03/06 02:37:12;;;;;;;13.23;10.18;;;;;;;;;;4973399;28;20043;-79
2022/03/06 02:39:38;;;;;;;13.05;9.27;;;;;;;;;;4963400;28;20095;-79
2022/03/06 02:42:04;;;;;;;11.70;9.40;;;;;;;;;;4941127;28;20036;-79
2022/03/06 02:44:30;;;;;;;11.50;9.52;;;;;;;;;;4962364;28;20416;-79
2022/03/06 02:46:56;;;;;;;12.82;10.10;;;;;;;;;;4967248;28;20126;-79
2022/03/06 02:49:23;;;;;;;14.05;9.70;;;;;;;;;;4953674;28;20066;-79
2022/03/06 02:51:49;;;;;;;10.88;9.07;;;;;;;;;;4955299;28;20106;-79
2022/03/06 02:54:17;;;;;;;14.52;10.52;;;;;;;;;;4965273;28;20431;-79
2022/03/06 02:56:44;;;;;;;13.38;10.02;;;;;;;;;;4969450;28;20035;-79
2022/03/06 02:59:10;;;;;;;14.90;9.63;;;;;;;;;;4969873;28;20385;-79
2022/03/06 03:01:40;;;;;;;11.65;9.70;;;;;;;;;;4968722;28;20059;-79
2022/03/06 03:04:06;;;;;;;12.40;9.55;;;;;;;;;;4974270;28;20038;-79
2022/03/06 03:06:32;;;;;;;14.52;10.15;;;;;;;;;;4947735;28;20130;-79
2022/03/06 03:08:58;;;;;;;12.80;9.38;;;;;;;;;;4948827;28;20035;-79
2022/03/06 03:11:23;;;;;;;13.40;9.55;;;;;;;;;;4953978;28;20057;-79
2022/03/06 03:13:49;;;;;;;14.07;10.55;;;;;;;;;;4955684;28;20043;-79
2022/03/06 03:16:15;;;;;;;16.83;10.75;;;;;;;;;;4973192;28;20050;-79
2022/03/06 03:18:41;;;;;;;18.02;10.65;;;;;;;;;;4985085;28;20106;-79
2022/03/06 03:21:06;;;;;;;12.75;9.60;;;;;;;;;;4957007;28;20039;-79
2022/03/06 03:23:33;;;;;;;14.77;9.48;;;;;;;;;;4976588;28;20077;-79
2022/03/06 03:25:58;;;;;;;13.02;9.52;;;;;;;;;;4960202;28;20531;-79
2022/03/06 03:28:24;;;;;;;13.75;9.10;;;;;;;;;;4968151;28;20039;-79
2022/03/06 03:30:50;;;;;;;12.85;9.63;;;;;;;;;;4966044;28;20455;-79
2022/03/06 03:33:16;;;;;;;11.10;8.55;;;;;;;;;;4955269;28;20483;-79
2022/03/06 03:35:41;;;;;;;10.52;8.40;;;;;;;;;;4982761;28;20054;-79
2022/03/06 03:38:07;;;;;;;14.93;9.02;;;;;;;;;;4965322;28;20102;-79
2022/03/06 03:40:33;;;;;;;10.43;7.78;;;;;;;;;;4948400;28;20107;-79
2022/03/06 03:42:58;;;;;;;13.27;8.88;;;;;;;;;;4937578;28;20094;-79
2022/03/06 03:45:24;;;;;;;11.45;8.57;;;;;;;;;;5009004;28;20036;-80
2022/03/06 03:47:50;;;;;;;11.68;8.55;;;;;;;;;;4957879;28;20060;-79
2022/03/06 03:50:15;;;;;;;11.27;8.40;;;;;;;;;;4984747;28;20043;-79
2022/03/06 03:52:41;;;;;;;12.63;7.90;;;;;;;;;;4949642;28;20038;-79
2022/03/06 03:55:07;;;;;;;11.73;7.65;;;;;;;;;;4979621;28;20377;-79
2022/03/06 03:57:33;;;;;;;10.45;7.38;;;;;;;;;;4961888;28;20122;-79
2022/03/06 03:59:59;;;;;;;9.98;8.00;;;;;;;;;;4950703;28;20115;-82
2022/03/06 04:02:24;;;;;;;9.00;7.45;;;;;;;;;;4952339;28;20070;-82
2022/03/06 04:04:51;;;;;;;9.90;7.57;;;;;;;;;;4952556;28;20047;-82
2022/03/06 04:07:17;;;;;;;9.50;6.93;;;;;;;;;;4948728;28;20118;-82
2022/03/06 04:09:42;;;;;;;12.32;7.07;;;;;;;;;;4929309;28;20126;-82
2022/03/06 04:12:09;;;;;;;10.68;7.28;;;;;;;;;;4953179;28;20094;-82
2022/03/06 04:14:34;;;;;;;12.00;7.50;;;;;;;;;;4950201;28;21642;-82
2022/03/06 04:17:00;;;;;;;9.25;6.72;;;;;;;;;;4947733;28;20130;-82
2022/03/06 04:19:26;;;;;;;9.63;7.22;;;;;;;;;;4939086;28;20707;-82
2022/03/06 04:21:52;;;;;;;8.10;7.05;;;;;;;;;;4951954;28;20042;-82
2022/03/06 04:24:18;;;;;;;9.82;7.65;;;;;;;;;;4939034;28;20042;-82
2022/03/06 04:26:44;;;;;;;11.48;7.20;;;;;;;;;;4945048;28;20411;-82
2022/03/06 04:29:10;;;;;;;10.10;6.57;;;;;;;;;;4959846;28;20039;-82
2022/03/06 04:31:35;;;;;;;10.30;7.00;;;;;;;;;;4948605;28;20059;-82
2022/03/06 04:34:01;;;;;;;9.85;7.50;;;;;;;;;;4941552;28;20335;-82
2022/03/06 04:36:27;;;;;;;7.45;6.68;;;;;;;;;;4950822;28;20304;-82
2022/03/06 04:38:53;;;;;;;11.82;7.30;;;;;;;;;;4963487;28;20047;-82
2022/03/06 04:41:19;;;;;;;9.23;7.55;;;;;;;;;;4961307;28;20035;-83
2022/03/06 04:43:45;;;;;;;9.25;7.32;;;;;;;;;;4984143;28;20074;-82
2022/03/06 04:46:11;;;;;;;10.25;7.57;;;;;;;;;;4950628;28;20044;-82
2022/03/06 04:48:37;;;;;;;10.45;7.88;;;;;;;;;;4952424;28;20472;-82
2022/03/06 04:51:03;;;;;;;12.35;8.05;;;;;;;;;;4930718;28;20051;-82
2022/03/06 04:53:31;;;;;;;10.80;8.10;;;;;;;;;;4942681;28;20042;-82
2022/03/06 04:55:56;;;;;;;10.93;7.85;;;;;;;;;;4959598;28;20127;-83
2022/03/06 04:58:22;;;;;;;12.50;8.80;;;;;;;;;;4944952;28;20185;-82
2022/03/06 05:00:48;;;;;;;10.07;8.75;;;;;;;;;;4936222;28;20043;-82
2022/03/06 05:03:14;;;;;;;10.07;8.13;;;;;;;;;;4944330;28;20496;-82
2022/03/06 05:05:40;;;;;;;10.60;8.25;;;;;;;;;;4944582;28;20129;-82
2022/03/06 05:08:05;;;;;;;13.90;8.20;;;;;;;;;;4940424;28;20047;-82
2022/03/06 05:10:31;;;;;;;9.52;8.25;;;;;;;;;;4937769;28;20468;-82
2022/03/06 05:12:57;;;;;;;11.18;8.30;;;;;;;;;;4934540;28;20701;-83
2022/03/06 05:15:23;;;;;;;9.55;8.45;;;;;;;;;;4955480;28;20568;-82
2022/03/06 05:17:48;;;;;;;11.18;8.40;;;;;;;;;;4944763;28;20031;-82
2022/03/06 05:20:14;;;;;;;14.15;9.02;;;;;;;;;;4934775;29;20449;-82
2022/03/06 05:22:40;;;;;;;15.75;9.43;;;;;;;;;;4940024;28;20645;-82
2022/03/06 05:25:08;;;;;;;12.43;8.35;;;;;;;;;;4940182;28;20469;-82
2022/03/06 05:27:34;;;;;;;11.90;8.10;;;;;;;;;;4958299;28;20124;-82
2022/03/06 05:30:00;;;;;;;9.90;7.57;;;;;;;;;;4958217;28;20102;-82
2022/03/06 05:32:26;;;;;;;12.68;8.43;;;;;;;;;;4937427;28;20050;-82
2022/03/06 05:34:51;;;;;;;11.32;7.97;;;;;;;;;;4943168;28;20042;-82
2022/03/06 05:37:17;;;;;;;10.45;8.00;;;;;;;;;;4957392;28;20511;-82
2022/03/06 05:39:43;;;;;;;8.93;7.28;;;;;;;;;;4945913;28;20595;-82
2022/03/06 05:42:09;;;;;;;12.73;7.60;;;;;;;;;;4947899;28;20031;-82
2022/03/06 05:44:34;;;;;;;10.38;8.35;;;;;;;;;;4943546;28;20089;-82
2022/03/06 05:47:00;;;;;;;11.13;8.38;;;;;;;;;;4948699;28;20046;-82
2022/03/06 05:49:26;;;;;;;14.02;9.20;;;;;;;;;;4937170;28;20040;-82
2022/03/06 05:51:53;;;;;;;11.45;8.30;;;;;;;;;;4947671;28;20089;-82
2022/03/06 05:54:19;;;;;;;11.85;8.80;;;;;;;;;;4933084;28;20455;-82
2022/03/06 05:56:45;;;;;;;10.98;7.85;;;;;;;;;;4930882;28;20066;-82
2022/03/06 05:59:12;;;;;;;12.45;8.02;;;;;;;;;;4963789;28;20042;-82
2022/03/06 06:01:38;;;;;;;11.95;8.48;;;;;;;;;;4945677;28;20035;-82
2022/03/06 06:04:04;;;;;;;10.90;7.40;;;;;;;;;;4960158;28;20113;-82
2022/03/06 06:06:30;;;;;;;11.60;8.05;;;;;;;;;;4954993;28;20045;-82
2022/03/06 06:08:57;;;;;;;10.82;6.97;;;;;;;;;;4953523;28;20523;-82
2022/03/06 06:11:23;;;;;;;9.93;7.10;;;;;;;;;;4964308;28;20042;-82
2022/03/06 06:13:50;;;;;;;11.60;8.10;;;;;;;;;;4949338;28;20100;-82
2022/03/06 06:16:17;;;;;;;10.90;7.97;;;;;;;;;;4953725;28;20117;-82
2022/03/06 06:18:43;;;;;;;11.40;6.82;;;;;;;;;;4945089;28;20134;-82
2022/03/06 06:21:10;;;;;;;9.30;7.07;;;;;;;;;;4956015;28;20043;-82
2022/03/06 06:23:36;;;;;;;11.30;7.07;;;;;;;;;;4949493;28;20506;-82
2022/03/06 06:26:02;;;;;;;9.95;7.25;;;;;;;;;;4948605;28;20280;-82
2022/03/06 06:28:28;;;;;;;10.50;7.60;;;;;;;;;;4959124;28;20042;-82
2022/03/06 06:30:54;;;;;;;13.82;7.90;;;;;;;;;;4949440;28;20122;-82
2022/03/06 06:33:20;;;;;;;12.13;7.20;;;;;;;;;;4948155;28;20039;-82
2022/03/06 06:35:46;;;;;;;10.10;7.50;;;;;;;;;;4932502;29;20039;-82
2022/03/06 06:38:12;;;;;;;12.95;8.65;;;;;;;;;;4939779;28;20498;-82
2022/03/06 06:40:38;;;;;;;12.57;8.57;;;;;;;;;;4946352;28;20123;-82
2022/03/06 06:43:04;;;;;;;11.65;7.93;;;;;;;;;;4940499;28;20059;-82
2022/03/06 06:45:30;;;;;;;12.20;8.65;;;;;;;;;;4958984;28;20094;-82
2022/03/06 06:47:57;;;;;;;10.85;7.65;;;;;;;;;;4955473;28;20035;-82
2022/03/06 06:50:23;;;;;;;13.65;8.43;;;;;;;;;;4952945;28;20649;-82
2022/03/06 06:52:49;;;;;;;10.95;7.40;;;;;;;;;;4936032;28;20785;-82
2022/03/06 06:55:14;;;;;;;10.13;7.78;;;;;;;;;;4974108;28;20452;-82
2022/03/06 06:57:40;;;;;;;9.82;7.70;;;;;;;;;;4967572;28;20106;-82
2022/03/06 07:00:07;;;;;;;11.70;8.10;;;;;;;;;;4964879;28;20043;-82
2022/03/06 07:02:33;;;;;;;12.25;8.15;;;;;;;;;;4939971;28;20062;-82
2022/03/06 07:04:59;;;;;;;10.10;7.97;;;;;;;;;;4936598;28;20040;-82
2022/03/06 07:07:25;;;;;;;10.57;7.78;;;;;;;;;;4958901;28;20122;-82
2022/03/06 07:09:50;;;;;;;11.07;8.63;;;;;;;;;;4947840;28;20035;-82
2022/03/06 07:12:17;;;;;;;10.57;7.30;;;;;;;;;;4952517;28;20047;-82
2022/03/06 07:14:43;;;;;;;10.38;7.55;;;;;;;;;;4954394;28;20074;-82
2022/03/06 07:17:09;;;;;;;10.05;7.55;;;;;;;;;;4948572;28;20552;-82
2022/03/06 07:19:36;;;;;;;11.10;8.25;;;;;;;;;;4978757;28;20042;-82
2022/03/06 07:22:01;;;;;;;11.02;7.53;;;;;;;;;;4963609;28;20047;-82
2022/03/06 07:24:27;;;;;;;11.23;7.68;;;;;;;;;;4954878;28;20049;-82
2022/03/06 07:26:53;;;;;;;9.77;6.88;;;;;;;;;;4946273;28;20126;-82
2022/03/06 07:29:19;;;;;;;10.23;7.18;;;;;;;;;;4946877;28;20047;-82
2022/03/06 07:31:47;;;;;;;12.57;7.88;;;;;;;;;;4970264;28;20691;-82
2022/03/06 07:34:14;;;;;;;10.55;7.15;;;;;;;;;;4958726;28;20055;-82
2022/03/06 07:36:40;;;;;;;13.13;9.00;;;;;;;;;;4966676;28;20049;-83
2022/03/06 07:39:05;;;;;;;48.00;31.75;;;;;;;;;;4929818;28;20071;-81
2022/03/06 07:41:31;;;;;;;15.48;12.23;;;;;;;;;;4955420;28;20102;-82
2022/03/06 07:43:57;;;;;;;9.10;7.22;;;;;;;;;;4985080;28;20072;-81
2022/03/06 07:46:22;;;;;;;11.63;7.10;;;;;;;;;;4952347;28;20300;-81
2022/03/06 07:48:48;;;;;;;8.23;7.15;;;;;;;;;;4947232;28;20126;-81
2022/03/06 07:51:14;;;;;;;9.07;6.95;;;;;;;;;;4959012;28;20566;-81
2022/03/06 07:53:39;;;;;;;8.38;6.25;;;;;;;;;;4959988;28;20070;-81
2022/03/06 07:56:05;;;;;;;9.88;6.53;;;;;;;;;;4964089;28;20074;-81
2022/03/06 07:58:31;;;;;;;10.00;6.68;;;;;;;;;;4965091;28;20035;-81
2022/03/06 08:00:57;;;;;;;10.10;7.15;;;;;;;;;;4966956;28;20090;-81
2022/03/06 08:03:23;;;;;;;12.77;9.43;;;;;;;;;;4966531;28;20434;-81
2022/03/06 08:05:48;;;;;;;9.52;8.43;;;;;;;;;;4967313;28;20043;-81
2022/03/06 08:08:16;;;;;;;9.23;7.05;;;;;;;;;;4963886;28;20042;-81
2022/03/06 08:10:43;;;;;;;10.27;7.53;;;;;;;;;;4945229;28;20054;-81
2022/03/06 08:13:08;;;;;;;14.07;8.73;;;;;;;;;;4944861;28;20445;-81
2022/03/06 08:15:36;;;;;;;12.50;7.00;;;;;;;;;;4960772;28;20050;-81
2022/03/06 08:18:02;;;;;;;9.40;7.13;;;;;;;;;;4945523;28;20051;-81
2022/03/06 08:20:28;;;;;;;8.93;6.57;;;;;;;;;;4956580;28;20047;-81
2022/03/06 08:22:54;;;;;;;10.77;7.65;;;;;;;;;;4976755;28;20389;-81
2022/03/06 08:25:20;;;;;;;10.35;7.65;;;;;;;;;;4959385;28;20038;-81
2022/03/06 08:27:48;;;;;;;7.45;6.25;;;;;;;;;;4950461;28;20054;-81
2022/03/06 08:30:15;;;;;;;9.27;6.15;;;;;;;;;;4947588;28;20045;-80
2022/03/06 08:32:40;;;;;;;7.45;5.90;;;;;;;;;;4949648;28;20046;-80
2022/03/06 08:35:08;;;;;;;9.10;6.22;;;;;;;;;;4953285;28;20142;-80
2022/03/06 08:37:33;;;;;;;8.07;5.75;;;;;;;;;;4964907;28;20047;-80
2022/03/06 08:40:00;;;;;;;6.63;5.65;;;;;;;;;;4947753;28;20047;-80
2022/03/06 08:42:26;;;;;;;6.38;5.35;;;;;;;;;;4947283;28;20491;-80
2022/03/06 08:44:52;;;;;;;8.88;5.57;;;;;;;;;;4943582;28;20047;-80
2022/03/06 08:47:19;;;;;;;7.60;6.00;;;;;;;;;;4960006;28;20047;-80
2022/03/06 08:49:44;;;;;;;13.07;9.10;;;;;;;;;;4963449;28;20086;-80
2022/03/06 08:52:11;;;;;;;8.45;6.30;;;;;;;;;;4960432;28;20046;-80
2022/03/06 08:54:37;;;;;;;9.30;6.20;;;;;;;;;;4963624;28;20070;-80
2022/03/06 08:57:05;;;;;;;9.35;6.57;;;;;;;;;;4957864;28;20042;-80
2022/03/06 08:59:30;;;;;;;8.70;6.13;;;;;;;;;;4961837;28;20046;-80
2022/03/06 09:01:56;;;;;;;8.65;6.05;;;;;;;;;;4964417;28;20420;-80
2022/03/06 09:04:23;;;;;;;11.13;6.97;;;;;;;;;;4954099;28;20062;-80
2022/03/06 09:06:49;;;;;;;10.43;7.88;;;;;;;;;;4954962;28;20516;-80
2022/03/06 09:09:15;;;;;;;13.18;8.23;;;;;;;;;;4977871;28;20078;-80
2022/03/06 09:11:42;;;;;;;12.85;9.00;;;;;;;;;;4941922;28;20043;-80
2022/03/06 09:14:08;;;;;;;14.50;8.15;;;;;;;;;;4949455;28;20058;-80
2022/03/06 09:16:34;;;;;;;7.78;6.15;;;;;;;;;;4943299;28;20035;-80
2022/03/06 09:19:02;;;;;;;9.25;5.68;;;;;;;;;;4942353;28;20032;-79
2022/03/06 09:21:28;;;;;;;8.50;6.43;;;;;;;;;;4930636;28;20522;-80
2022/03/06 09:23:54;;;;;;;9.18;6.30;;;;;;;;;;4971645;28;20039;-80
2022/03/06 09:26:20;;;;;;;9.35;6.32;;;;;;;;;;4960526;28;20114;-80
2022/03/06 09:28:46;;;;;;;9.55;6.78;;;;;;;;;;4948093;28;20607;-80
2022/03/06 09:31:12;;;;;;;10.98;6.68;;;;;;;;;;4963926;28;20205;-80
2022/03/06 09:33:37;;;;;;;9.43;6.10;;;;;;;;;;4962693;28;20043;-80
2022/03/06 09:36:03;;;;;;;10.18;6.55;;;;;;;;;;4948229;28;20445;-80
2022/03/06 09:38:29;;;;;;;9.23;6.97;;;;;;;;;;4933998;28;20535;-80
2022/03/06 09:40:56;;;;;;;8.18;6.20;;;;;;;;;;4942227;28;20500;-80
2022/03/06 09:43:22;;;;;;;9.07;6.53;;;;;;;;;;4943976;28;20122;-80
2022/03/06 09:45:48;;;;;;;8.68;6.72;;;;;;;;;;4974097;28;20482;-80
2022/03/06 09:48:18;;;;;;;14.93;6.95;;;;;;;;;;4963739;28;20081;-80
2022/03/06 09:50:44;;;;;;;7.70;6.30;;;;;;;;;;4960933;28;20062;-80
2022/03/06 09:53:10;;;;;;;8.68;6.80;;;;;;;;;;4961055;28;20043;-80
2022/03/06 09:55:36;;;;;;;12.57;8.07;;;;;;;;;;4954855;28;20066;-80
2022/03/06 09:58:03;;;;;;;27.10;15.52;;;;;;;;;;4935714;28;20568;-80
2022/03/06 10:00:28;;;;;;;12.45;7.20;;;;;;;;;;4952542;28;20046;-80
2022/03/06 10:03:03;;;;;;;8.32;6.20;;;;;;;;;;4935251;28;20067;-80
2022/03/06 10:05:31;;;;;;;9.63;7.03;;;;;;;;;;4958302;28;20050;-80
2022/03/06 10:08:14;;;;;;;6.40;5.68;;;;;;;;;;4932060;28;20050;-80
2022/03/06 10:10:40;;;;;;;7.90;6.28;;;;;;;;;;4947347;28;20039;-80
2022/03/06 10:13:17;;;;;;;9.27;5.95;;;;;;;;;;4954401;28;20121;-80
2022/03/06 10:16:11;;;;;;;8.55;6.43;;;;;;;;;;4963891;28;20464;-80
2022/03/06 10:18:50;;;;;;;9.80;6.38;;;;;;;;;;4973232;28;20747;-80
2022/03/06 10:21:17;;;;;;;9.30;6.70;;;;;;;;;;4964097;28;20043;-80
2022/03/06 10:23:44;;;;;;;8.45;6.30;;;;;;;;;;4964741;28;20043;-80
2022/03/06 10:26:13;;;;;;;7.75;6.68;;;;;;;;;;4965508;28;20043;-80
2022/03/06 10:29:03;;;;;;;7.53;5.90;;;;;;;;;;4964228;28;20593;-80
2022/03/06 10:31:32;;;;;;;6.07;5.47;;;;;;;;;;4961499;28;20030;-80
2022/03/06 10:34:10;;;;;;;6.20;5.60;;;;;;;;;;4956953;28;20380;-80
2022/03/06 10:36:46;;;;;;;6.68;5.93;;;;;;;;;;4967888;28;20043;-80
2022/03/06 10:39:20;;;;;;;6.38;5.50;;;;;;;;;;4968446;28;20035;-80
2022/03/06 10:41:51;;;;;;;6.22;5.63;;;;;;;;;;4963098;28;20043;-80
2022/03/06 10:44:19;;;;;;;6.32;5.72;;;;;;;;;;4937330;28;20098;-80
2022/03/06 10:47:03;;;;;;;7.18;5.55;;;;;;;;;;4960527;28;20047;-80
2022/03/06 10:49:30;;;;;;;7.72;5.55;;;;;;;;;;4934061;28;20527;-80
2022/03/06 10:51:56;;;;;;;7.72;5.55;;;;;;;;;;4959386;28;20397;-80
2022/03/06 10:54:22;;;;;;;6.32;5.40;;;;;;;;;;4958175;28;20057;-80
2022/03/06 10:56:50;;;;;;;6.30;5.45;;;;;;;;;;4946787;28;20519;-80
2022/03/06 10:59:24;;;;;;;8.27;6.68;;;;;;;;;;4962336;28;20045;-80
2022/03/06 11:01:50;;;;;;;6.10;5.35;;;;;;;;;;4965096;28;20118;-80
2022/03/06 11:04:20;;;;;;;7.35;5.85;;;;;;;;;;4966415;28;20663;-80
2022/03/06 11:06:48;;;;;;;6.40;5.65;;;;;;;;;;4962542;28;20344;-81
2022/03/06 11:09:16;;;;;;;7.00;5.45;;;;;;;;;;4945135;28;20093;-80
2022/03/06 11:11:44;;;;;;;5.60;5.10;;;;;;;;;;4948093;28;20114;-80
2022/03/06 11:14:11;;;;;;;5.47;5.00;;;;;;;;;;4965759;28;20043;-80
2022/03/06 11:16:38;;;;;;;6.07;4.90;;;;;;;;;;4959930;28;20045;-80
2022/03/06 11:19:05;;;;;;;6.38;5.55;;;;;;;;;;4939462;28;20077;-80
2022/03/06 11:21:33;;;;;;;5.95;5.35;;;;;;;;;;4935261;28;20499;-80
2022/03/06 11:24:00;;;;;;;7.57;5.53;;;;;;;;;;4942207;28;20061;-80
2022/03/06 11:26:47;;;;;;;7.97;5.63;;;;;;;;;;4960461;28;20124;-80
2022/03/06 11:29:22;;;;;;;7.03;6.32;;;;;;;;;;4967136;28;20125;-80
2022/03/06 11:31:50;;;;;;;6.87;5.53;;;;;;;;;;4948395;28;20041;-80
2022/03/06 11:34:31;;;;;;;8.40;5.95;;;;;;;;;;4979007;28;20454;-80
2022/03/06 11:36:57;;;;;;;5.68;5.10;;;;;;;;;;4966569;28;20042;-80
2022/03/06 11:39:49;;;;;;;6.30;5.70;;;;;;;;;;4950681;28;20046;-80
2022/03/06 11:42:49;;;;;;;6.38;5.60;;;;;;;;;;4942719;28;20050;-80
2022/03/06 11:45:54;;;;;;;7.93;5.70;;;;;;;;;;4968317;28;20045;-80
2022/03/06 11:48:34;;;;;;;7.82;7.00;;;;;;;;;;4967296;28;20039;-80
2022/03/06 11:51:22;;;;;;;7.35;6.60;;;;;;;;;;4968586;28;20062;-80
2022/03/06 11:53:55;;;;;;;7.55;6.75;;;;;;;;;;4964735;28;20047;-80
2022/03/06 11:59:25;;;;;;;10.13;7.90;;;;;;;;;;4969849;28;20420;-80
2022/03/06 12:01:54;;;;;;;10.70;7.97;;;;;;;;;;4967864;28;20057;-80
2022/03/06 12:04:26;;;;;;;6.35;5.50;;;;;;;;;;4958881;28;20050;-80
2022/03/06 12:06:54;;;;;;;7.22;5.30;;;;;;;;;;4967982;28;20054;-80
2022/03/06 12:09:24;;;;;;;8.98;6.32;;;;;;;;;;4951140;28;20583;-80
2022/03/06 12:11:53;;;;;;;7.97;6.28;;;;;;;;;;4950094;28;20563;-80
2022/03/06 12:14:22;;;;;;;4.13;3.72;;;;;;;;;;4977789;28;20494;-80
2022/03/06 12:17:03;;;;;;;4.63;4.22;;;;;;;;;;4967733;28;20039;-80
2022/03/06 12:19:41;;;;;;;6.53;5.13;;;;;;;;;;4961965;28;20042;-80
2022/03/06 12:22:09;;;;;;;7.22;4.05;;;;;;;;;;4955960;28;20047;-81
2022/03/06 12:24:36;;;;;;;4.55;3.88;;;;;;;;;;4951668;28;20753;-81
2022/03/06 12:27:31;;;;;;;5.38;4.40;;;;;;;;;;4949041;28;20468;-80
2022/03/06 12:29:58;;;;;;;4.60;3.78;;;;;;;;;;4958807;28;20412;-81
2022/03/06 12:32:33;;;;;;;4.00;3.60;;;;;;;;;;4950607;28;20042;-80
2022/03/06 12:35:15;;;;;;;4.97;4.05;;;;;;;;;;4954154;28;20066;-80
2022/03/06 12:37:51;;;;;;;5.50;4.55;;;;;;;;;;4959239;28;20122;-80
2022/03/06 12:40:22;;;;;;;4.97;3.95;;;;;;;;;;4946500;28;20179;-80
2022/03/06 12:42:56;;;;;;;4.28;3.80;;;;;;;;;;4947276;28;20039;-80
2022/03/06 12:45:22;;;;;;;5.05;3.50;;;;;;;;;;4951535;28;20035;-81
2022/03/06 12:47:48;;;;;;;4.32;3.70;;;;;;;;;;4957679;28;20035;-80
2022/03/06 12:50:17;;;;;;;9.55;5.32;;;;;;;;;;4981421;28;20619;-80
2022/03/06 12:52:43;;;;;;;5.72;4.55;;;;;;;;;;4947597;28;20050;-81
2022/03/06 12:55:18;;;;;;;4.32;3.90;;;;;;;;;;4951477;28;20055;-83
2022/03/06 12:57:49;;;;;;;6.75;5.47;;;;;;;;;;4946944;28;20047;-83
2022/03/06 13:00:24;;;;;;;6.55;4.65;;;;;;;;;;4943560;28;20427;-82
2022/03/06 13:02:51;;;;;;;6.68;4.30;;;;;;;;;;4946946;28;20094;-81
2022/03/06 13:05:17;;;;;;;4.28;3.83;;;;;;;;;;4959023;28;20042;-82
2022/03/06 13:07:43;;;;;;;3.95;3.50;;;;;;;;;;4950321;28;20514;-83
2022/03/06 13:10:14;;;;;;;4.30;3.90;;;;;;;;;;4942404;28;20058;-83
2022/03/06 13:12:45;;;;;;;4.70;4.30;;;;;;;;;;4950201;28;20493;-82
2022/03/06 13:15:13;;;;;;;4.03;3.63;;;;;;;;;;4933163;28;20043;-82
2022/03/06 13:17:47;;;;;;;4.50;4.10;;;;;;;;;;4959398;28;20109;-83
2022/03/06 13:20:16;;;;;;;6.80;5.20;;;;;;;;;;4957373;28;20031;-83
2022/03/06 13:22:42;;;;;;;4.35;4.03;;;;;;;;;;4953237;28;20034;-82
2022/03/06 13:25:09;;;;;;;5.13;4.63;;;;;;;;;;4954061;28;20523;-82
2022/03/06 13:27:42;;;;;;;6.35;4.55;;;;;;;;;;4929048;28;20036;-82
2022/03/06 13:30:15;;;;;;;5.53;4.38;;;;;;;;;;4956573;28;20485;-85
2022/03/06 13:32:45;;;;;;;8.73;6.20;;;;;;;;;;4962341;28;20126;-82
2022/03/06 13:35:31;;;;;;;7.55;5.53;;;;;;;;;;4934998;28;20035;-80
2022/03/06 13:38:00;;;;;;;7.60;4.18;;;;;;;;;;4966051;28;20560;-82
2022/03/06 13:40:29;;;;;;;5.78;3.63;;;;;;;;;;4955141;28;20038;-82
2022/03/06 13:42:55;;;;;;;5.10;4.47;;;;;;;;;;4980973;28;20041;-81
2022/03/06 13:45:21;;;;;;;3.72;2.85;;;;;;;;;;4954686;28;20481;-81
2022/03/06 13:47:49;;;;;;;5.05;2.90;;;;;;;;;;4966275;28;20039;-82
2022/03/06 13:50:40;;;;;;;3.90;3.20;;;;;;;;;;4982259;28;20106;-83
2022/03/06 13:53:08;;;;;;;5.65;3.70;;;;;;;;;;4952732;28;20046;-82
2022/03/06 13:55:36;;;;;;;4.35;2.63;;;;;;;;;;4953169;28;20047;-82
2022/03/06 13:58:07;;;;;;;3.60;2.50;;;;;;;;;;4968602;28;20051;-82
2022/03/06 14:00:44;;;;;;;2.80;2.50;;;;;;;;;;4953316;28;20245;-81
2022/03/06 14:03:17;;;;;;;4.80;2.10;;;;;;;;;;4954618;28;20407;-81
2022/03/06 14:05:51;;;;;;;7.50;3.80;;;;;;;;;;4949087;28;20039;-82
2022/03/06 14:08:27;;;;;;;2.40;2.13;;;;;;;;;;4945860;28;20049;-82
2022/03/06 14:10:58;;;;;;;3.13;1.98;;;;;;;;;;4971579;28;20035;-81
2022/03/06 14:13:26;;;;;;;3.40;1.83;;;;;;;;;;4965957;28;20035;-81
2022/03/06 14:15:58;;;;;;;3.10;1.98;;;;;;;;;;4974419;28;20039;-81
2022/03/06 14:18:36;;;;;;;1.75;1.58;;;;;;;;;;4956305;28;20114;-82
2022/03/06 14:21:17;;;;;;;3.10;2.80;;;;;;;;;;4967738;28;20039;-81
2022/03/06 14:23:43;;;;;;;1.70;1.48;;;;;;;;;;4951377;28;20042;-82
2022/03/06 14:26:09;;;;;;;2.55;1.88;;;;;;;;;;4955870;28;20043;-82
2022/03/06 14:28:35;;;;;;;4.45;1.63;;;;;;;;;;4955785;28;20091;-81
2022/03/06 14:31:00;;;;;;;3.15;1.90;;;;;;;;;;4967465;28;20041;-81
2022/03/06 14:33:28;;;;;;;2.10;1.50;;;;;;;;;;4956522;28;20105;-81
2022/03/06 14:35:54;;;;;;;3.80;2.13;;;;;;;;;;4970180;28;20039;-82
2022/03/06 14:38:20;;;;;;;4.43;3.58;;;;;;;;;;4962298;28;20098;-81
2022/03/06 14:40:46;;;;;;;6.30;3.90;;;;;;;;;;4955478;28;20039;-82